Login to view products. 
Thursday, January 19, 2017 (02:12 UTC)
Sharjah International Airport
ICAO Code: OMSJ
IATA Code: SHJ
  • METAR OMSJ 190200Z 07002KT CAVOK 14/11 Q1018=
  • TAF OMSJ 182259Z 1900/2006 09005KT CAVOK BECMG 1904/1906 18010KT BECMG 1910/1912 35010KT BECMG 1915/1917 08008KT BECMG 2004/2006 18010KT=